Anchorville, MI (48004)

4:51 AM EST on February 13, 2016 (GMT -0500)
Swan Creek | | Change Station
CLOSE
Current Station
Personal Weather Station
Location: Michigan, MI
Elevation: 584 ft
Nearby Weather Stations
Active Advisory: Wind Chill Advisory

Elev 584 ft 42.68 °N, 82.65 °W | Updated 10 minutes ago

Partly Cloudy
Partly Cloudy
2.2 °F
Feels Like -10 °F
N
7.0
Wind Variable Wind from WNW
Gusts 7.0 mph

Today
High -- | Low -- °F
--% Chance of Precip.
Yesterday
High -- | Low -- °F
Precip. -- in
Pressure 30.31 in
Visibility 10.0 miles
Clouds Mostly Cloudy 2700 ft
Windchill -10 °F
Dew Point -4 °F
Humidity 75%
Rainfall 0.00 in
Snow Depth Not available.
7:31 AM 5:59 PM
Waxing Crescent, 29% visible
SPECI KMTC 130933Z AUTO 32005KT 10SM BKN027 M16/M20 A3031 RMK AO2 BKN V SCT
Pressure 30.31 in
Visibility 10.0 miles
Clouds Mostly Cloudy 2700 ft
Windchill -10 °F
Dew Point -4 °F
Humidity 75%
Rainfall 0.00 in
Snow Depth Not available.
7:31 AM 5:59 PM
Waxing Crescent, 29% visible
SPECI KMTC 130933Z AUTO 32005KT 10SM BKN027 M16/M20 A3031 RMK AO2 BKN V SCT

10-Day Weather Forecast

Almanac

Astronomy

Feb. 13, 2016 Rise Set
Actual Time
Civil Twilight
Nautical Twilight
Astronomical Twilight
Moon
Length of Visible Light
Length of Day
Tomorrow will be .
, % of the Moon is Illuminated

Today's Extremes

State Highs State Lows

Community

WunderPhotos

Upload Photos

1,892,536 photos uploaded!

WunderBlog® & News

Nearby

Air Quality

  Air Quality AQ Index Pollutant
Not available.

Snow Depth

Station Depth Elevation

Earthquake Activity

City Distance Mag. Time & Date
Minimum magnitude displayed is 2.5.

Coastal Water Temperatures

Place Temperature

Stations

Nearby Weather Stations

Station Location Temp. Windchill Dew Point Humidity Wind Precip. Elev Updated Type
                   

Watches & Warnings

Wind Chill Advisory
Issued: 4:09 AM EST Feb. 13, 2016 – National Weather Service

... Wind Chill Advisory remains in effect until 11 am EST this
morning...

Hazardous weather...

* wind chill readings will fall to near 20 degrees below zero
   early this morning.

* Northwest winds will range between 10 and 20 mph with the
   strongest winds near Lake Huron.

* Temperatures will fall to between zero and 5 degrees below
   zero early this morning.

Impacts...

* frost bite will be possible in half an hour or less for
   exposed skin at these wind chill levels.

Precautionary/preparedness actions...

* a Wind Chill Advisory means that very cold air and strong
   winds will combine to generate low wind chills. This will
   result in frost bite and lead to hypothermia if precautions
   are not taken. If you must venture outdoors... make sure you
   wear a hat and gloves.

* Prepare... plan... and stay informed. Visit
   http://go.USA.Gov/rr8



Dg